Time;durP1;ratioP1;P1;durP2;ratioP2;P2;SDS_P1;SDS_P2;PMS_P1;PMS_P2;Temp;Humidity;BMP_temperature;BMP_pressure;BME280_temperature;BME280_humidity;BME280_pressure;Samples;Min_cycle;Max_cycle;Signal;HPM_P1;HPM_P2
2021/03/22 00:00:19;;;;;;;16.58;3.45;;;7.50;95.00;;;;;;5037985;28;20124;-71
2021/03/22 00:02:45;;;;;;;16.35;4.25;;;7.50;94.90;;;;;;5039179;28;20025;-73
2021/03/22 00:05:12;;;;;;;17.25;5.03;;;7.40;95.40;;;;;;5038507;28;20039;-68
2021/03/22 00:07:37;;;;;;;14.23;3.15;;;7.40;95.50;;;;;;5039410;28;20059;-69
2021/03/22 00:10:04;;;;;;;18.70;3.92;;;7.40;95.50;;;;;;5056466;28;20033;-70
2021/03/22 00:12:30;;;;;;;17.48;5.82;;;7.50;95.10;;;;;;5039536;28;20036;-67
2021/03/22 00:14:56;;;;;;;13.50;4.10;;;7.40;95.50;;;;;;5060440;28;20056;-71
2021/03/22 00:17:22;;;;;;;17.70;3.72;;;7.50;95.90;;;;;;5077074;28;20025;-69
2021/03/22 00:19:48;;;;;;;20.45;3.70;;;7.50;95.40;;;;;;5076759;28;20120;-70
2021/03/22 00:22:13;;;;;;;17.75;3.78;;;7.60;95.80;;;;;;5076608;28;20518;-68
2021/03/22 00:24:39;;;;;;;22.30;3.92;;;7.60;95.40;;;;;;5075160;28;20035;-68
2021/03/22 00:27:05;;;;;;;21.55;3.22;;;7.50;95.30;;;;;;5075924;28;20039;-68
2021/03/22 00:29:31;;;;;;;12.10;3.33;;;7.50;95.40;;;;;;5075869;28;20060;-68
2021/03/22 00:31:56;;;;;;;22.33;4.47;;;7.50;95.50;;;;;;5074921;28;20035;-69
2021/03/22 00:34:22;;;;;;;21.63;3.90;;;7.60;95.40;;;;;;5075425;28;20028;-68
2021/03/22 00:36:48;;;;;;;12.85;2.97;;;7.70;94.70;;;;;;5076530;28;20090;-70
2021/03/22 00:39:14;;;;;;;18.90;4.60;;;7.60;94.60;;;;;;5075124;28;20033;-72
2021/03/22 00:41:39;;;;;;;21.70;5.35;;;7.60;95.40;;;;;;5076327;28;20024;-73
2021/03/22 00:44:05;;;;;;;18.33;3.20;;;7.60;94.70;;;;;;5075722;28;20036;-70
2021/03/22 00:46:31;;;;;;;23.77;3.90;;;7.40;95.10;;;;;;5075029;28;20029;-69
2021/03/22 00:48:57;;;;;;;19.17;3.55;;;7.50;95.30;;;;;;5074936;28;20189;-69
2021/03/22 00:51:22;;;;;;;13.70;3.10;;;7.50;95.40;;;;;;5074128;28;20021;-67
2021/03/22 00:53:48;;;;;;;17.45;3.47;;;7.60;95.20;;;;;;5075233;28;20416;-73
2021/03/22 00:56:13;;;;;;;11.57;3.03;;;7.50;95.30;;;;;;5073583;28;20677;-68
2021/03/22 00:58:41;;;;;;;19.10;4.35;;;7.50;94.90;;;;;;5076691;28;20103;-74
2021/03/22 01:01:07;;;;;;;21.55;4.32;;;7.40;95.30;;;;;;5075334;28;20025;-77
2021/03/22 01:03:34;;;;;;;20.50;4.10;;;7.40;95.60;;;;;;5076865;28;20082;-69
2021/03/22 01:06:01;;;;;;;16.17;3.00;;;7.50;95.20;;;;;;5075988;28;20488;-68
2021/03/22 01:08:29;;;;;;;19.15;3.33;;;7.60;95.00;;;;;;5075106;28;20469;-76
2021/03/22 01:11:01;;;;;;;14.88;2.75;;;7.70;94.80;;;;;;5075148;28;20029;-69
2021/03/22 01:13:37;;;;;;;14.90;3.30;;;7.60;94.20;;;;;;5076367;28;20048;-69
2021/03/22 01:16:04;;;;;;;15.10;3.13;;;7.40;94.90;;;;;;5075569;28;20123;-71
2021/03/22 01:18:34;;;;;;;20.20;3.58;;;7.40;94.80;;;;;;5074829;28;20066;-75
2021/03/22 01:21:24;;;;;;;16.80;3.70;;;7.40;94.80;;;;;;5075823;28;20028;-70
2021/03/22 01:23:50;;;;;;;13.55;3.85;;;7.40;94.70;;;;;;5068357;28;20041;-70
2021/03/22 01:26:19;;;;;;;20.45;5.57;;;7.50;95.00;;;;;;5074949;28;20095;-70
2021/03/22 01:28:45;;;;;;;17.92;3.30;;;7.40;95.10;;;;;;5075640;28;20052;-67
2021/03/22 01:31:11;;;;;;;17.80;3.90;;;7.30;95.20;;;;;;5075886;28;20382;-68
2021/03/22 01:33:39;;;;;;;22.35;4.57;;;7.20;95.40;;;;;;5076371;28;20044;-68
2021/03/22 01:36:15;;;;;;;17.83;3.38;;;7.00;95.80;;;;;;5078003;28;20075;-69
2021/03/22 01:38:42;;;;;;;24.70;4.30;;;7.20;95.80;;;;;;5079352;28;20107;-68
2021/03/22 01:41:22;;;;;;;23.65;4.63;;;7.10;95.80;;;;;;5077847;28;20400;-69
2021/03/22 01:44:09;;;;;;;20.48;4.68;;;7.20;95.50;;;;;;5076321;28;20036;-66
2021/03/22 01:46:37;;;;;;;23.73;5.63;;;7.20;98.30;;;;;;5074183;28;20028;-68
2021/03/22 01:49:05;;;;;;;15.07;3.38;;;7.20;99.40;;;;;;5074745;28;20025;-71
2021/03/22 01:51:32;;;;;;;22.58;4.45;;;7.30;97.20;;;;;;5073565;28;20028;-73
2021/03/22 01:53:59;;;;;;;20.25;4.57;;;7.30;97.60;;;;;;5072707;28;20519;-69
2021/03/22 01:56:25;;;;;;;17.10;3.65;;;7.30;97.20;;;;;;5075272;28;20028;-67
2021/03/22 01:58:52;;;;;;;12.48;3.45;;;7.40;97.20;;;;;;5075217;28;20032;-67
2021/03/22 02:01:21;;;;;;;12.80;3.70;;;7.30;96.70;;;;;;5075108;28;20324;-72
2021/03/22 02:03:48;;;;;;;14.70;4.05;;;7.40;96.80;;;;;;5074724;28;20028;-69
2021/03/22 02:06:14;;;;;;;18.63;4.22;;;7.30;97.20;;;;;;5074034;28;20031;-68
2021/03/22 02:08:43;;;;;;;17.55;3.45;;;7.30;97.10;;;;;;5074351;28;20029;-68
2021/03/22 02:11:24;;;;;;;21.33;4.10;;;7.30;96.70;;;;;;5075307;28;20539;-67
2021/03/22 02:13:53;;;;;;;18.50;4.78;;;7.30;97.10;;;;;;5072170;28;20402;-68
2021/03/22 02:16:31;;;;;;;17.73;3.95;;;7.40;96.30;;;;;;5054473;28;20222;-74
2021/03/22 02:19:45;;;;;;;21.52;3.10;;;7.30;96.40;;;;;;5037990;28;20029;-71
2021/03/22 02:22:29;;;;;;;14.82;3.45;;;7.20;96.80;;;;;;4966077;28;20130;-69
2021/03/22 02:25:09;;;;;;;13.35;2.60;;;7.30;95.60;;;;;;5037486;28;20029;-68
2021/03/22 02:28:22;;;;;;;10.70;3.10;;;7.20;95.90;;;;;;5038004;28;20036;-69
2021/03/22 02:31:14;;;;;;;14.82;3.08;;;7.10;95.20;;;;;;4956515;29;20035;-70
2021/03/22 02:33:43;;;;;;;7.18;2.13;;;7.10;95.40;;;;;;4941211;29;20035;-70
2021/03/22 02:36:20;;;;;;;13.38;2.45;;;7.10;95.00;;;;;;4940626;29;20039;-71
2021/03/22 02:38:56;;;;;;;12.77;3.15;;;7.10;95.10;;;;;;4955655;29;20027;-68
2021/03/22 02:41:47;;;;;;;13.57;2.67;;;7.20;95.10;;;;;;4937791;28;20067;-71
2021/03/22 02:44:19;;;;;;;14.02;3.47;;;7.30;94.60;;;;;;4940180;29;20049;-71
2021/03/22 02:46:53;;;;;;;13.68;1.98;;;7.30;94.70;;;;;;4954292;29;20039;-74
2021/03/22 02:49:19;;;;;;;16.40;3.20;;;7.20;94.50;;;;;;4953574;29;20040;-73
2021/03/22 02:52:06;;;;;;;15.07;3.83;;;7.00;95.40;;;;;;4954207;29;20094;-69
2021/03/22 02:54:41;;;;;;;16.25;2.40;;;7.10;95.20;;;;;;4953862;29;20434;-72
2021/03/22 02:57:15;;;;;;;9.98;2.50;;;7.10;94.70;;;;;;4955483;29;20150;-72
2021/03/22 02:59:47;;;;;;;11.65;2.42;;;7.10;95.10;;;;;;4940725;28;20118;-74
2021/03/22 03:02:15;;;;;;;12.43;2.83;;;7.30;94.50;;;;;;5034644;28;20059;-70
2021/03/22 03:04:43;;;;;;;12.68;2.17;;;7.10;95.10;;;;;;5057426;28;20047;-72
2021/03/22 03:07:16;;;;;;;10.90;2.13;;;7.20;94.50;;;;;;5057814;28;20035;-72
2021/03/22 03:09:42;;;;;;;13.68;2.25;;;7.00;94.70;;;;;;5042225;28;20379;-67
2021/03/22 03:12:12;;;;;;;11.70;1.67;;;7.10;95.20;;;;;;5041263;28;20035;-67
2021/03/22 03:14:39;;;;;;;10.55;2.38;;;7.10;94.90;;;;;;5057021;28;20053;-69
2021/03/22 03:17:05;;;;;;;14.82;3.03;;;7.00;95.10;;;;;;5078545;28;20029;-69
2021/03/22 03:19:31;;;;;;;11.05;2.70;;;7.00;95.20;;;;;;5078409;28;20028;-71
2021/03/22 03:21:58;;;;;;;15.40;3.45;;;7.10;94.80;;;;;;5076433;28;20025;-72
2021/03/22 03:24:23;;;;;;;8.95;3.00;;;7.10;95.40;;;;;;5074231;28;20123;-67
2021/03/22 03:26:49;;;;;;;12.80;2.53;;;7.20;95.50;;;;;;5075906;28;20099;-67
2021/03/22 03:29:14;;;;;;;17.52;2.80;;;7.00;95.80;;;;;;5075920;28;20051;-66
2021/03/22 03:31:40;;;;;;;15.02;2.10;;;7.10;95.80;;;;;;5076950;28;20021;-68
2021/03/22 03:34:06;;;;;;;14.00;2.28;;;7.10;95.50;;;;;;5078997;28;20106;-71
2021/03/22 03:36:32;;;;;;;9.00;2.30;;;7.10;95.60;;;;;;5078560;28;20036;-67
2021/03/22 03:38:58;;;;;;;11.68;2.88;;;7.20;95.10;;;;;;5077333;28;20050;-67
2021/03/22 03:41:24;;;;;;;13.07;2.25;;;7.20;94.90;;;;;;5077863;28;20028;-70
2021/03/22 03:43:50;;;;;;;17.38;2.22;;;7.20;95.30;;;;;;5076581;28;20430;-69
2021/03/22 03:46:15;;;;;;;13.48;2.00;;;7.20;94.80;;;;;;5074040;28;20059;-67
2021/03/22 03:48:41;;;;;;;10.00;2.58;;;7.10;95.00;;;;;;5074250;28;20020;-67
2021/03/22 03:51:07;;;;;;;9.23;1.80;;;7.10;95.10;;;;;;5073510;28;20120;-67
2021/03/22 03:53:32;;;;;;;9.32;1.58;;;7.10;95.20;;;;;;5075195;28;20092;-67
2021/03/22 03:56:00;;;;;;;12.07;2.35;;;7.00;95.50;;;;;;5074534;28;20035;-67
2021/03/22 03:58:26;;;;;;;13.82;1.98;;;7.00;95.40;;;;;;5074912;28;20064;-68
2021/03/22 04:00:52;;;;;;;14.70;2.35;;;7.00;95.40;;;;;;5075731;28;20025;-68
2021/03/22 04:03:18;;;;;;;9.00;1.70;;;7.00;95.60;;;;;;5074646;28;20481;-67
2021/03/22 04:05:44;;;;;;;21.00;2.67;;;7.10;95.50;;;;;;5074438;28;20052;-67
2021/03/22 04:08:11;;;;;;;15.25;3.10;;;7.00;95.50;;;;;;5074313;28;20021;-69
2021/03/22 04:10:37;;;;;;;13.00;2.40;;;7.00;95.80;;;;;;5074288;28;20032;-66
2021/03/22 04:13:03;;;;;;;13.45;2.10;;;6.90;95.70;;;;;;5076218;28;20040;-69
2021/03/22 04:15:29;;;;;;;13.63;1.70;;;6.90;95.90;;;;;;5058790;28;20553;-67
2021/03/22 04:17:55;;;;;;;10.45;2.22;;;6.80;97.20;;;;;;5055171;28;20053;-67
2021/03/22 04:20:20;;;;;;;10.95;3.08;;;6.90;97.10;;;;;;5037150;28;20471;-68
2021/03/22 04:22:46;;;;;;;5.20;1.40;;;6.80;97.10;;;;;;5037776;28;20029;-69
2021/03/22 04:25:12;;;;;;;10.23;2.13;;;6.80;97.60;;;;;;5054552;28;20024;-67
2021/03/22 04:27:39;;;;;;;9.85;1.67;;;6.90;97.40;;;;;;5055978;28;20021;-70
2021/03/22 04:30:07;;;;;;;7.90;1.65;;;6.90;97.30;;;;;;5055004;28;20028;-68
2021/03/22 04:32:33;;;;;;;9.52;2.33;;;7.00;97.40;;;;;;5054865;28;20024;-67
2021/03/22 04:34:58;;;;;;;10.65;1.80;;;6.80;97.40;;;;;;5037223;28;20033;-69
2021/03/22 04:37:24;;;;;;;14.35;1.73;;;6.80;98.00;;;;;;5036315;28;20036;-68
2021/03/22 04:39:49;;;;;;;11.82;2.97;;;6.90;98.10;;;;;;5054854;28;20036;-69
2021/03/22 04:42:15;;;;;;;13.90;2.08;;;7.00;97.80;;;;;;5054525;28;20040;-72
2021/03/22 04:44:41;;;;;;;9.48;2.03;;;7.10;97.40;;;;;;5054741;28;20072;-67
2021/03/22 04:47:06;;;;;;;10.27;2.28;;;6.90;97.70;;;;;;5054414;28;20082;-67
2021/03/22 04:49:32;;;;;;;12.98;2.13;;;6.90;98.10;;;;;;5035985;28;20033;-67
2021/03/22 04:51:58;;;;;;;11.45;2.97;;;6.90;98.30;;;;;;5054594;28;20040;-67
2021/03/22 04:54:23;;;;;;;8.45;1.65;;;6.90;98.10;;;;;;5053165;28;20041;-67
2021/03/22 04:56:49;;;;;;;7.88;1.63;;;6.90;97.80;;;;;;5053766;28;20052;-70
2021/03/22 04:59:15;;;;;;;11.98;2.38;;;7.00;98.10;;;;;;5035680;28;20108;-67
2021/03/22 05:01:40;;;;;;;6.38;1.95;;;6.90;98.00;;;;;;5054528;28;20454;-67
2021/03/22 05:04:06;;;;;;;11.20;1.65;;;6.90;97.50;;;;;;5054651;28;20029;-68
2021/03/22 05:06:32;;;;;;;5.93;1.85;;;6.80;97.70;;;;;;5053383;28;20032;-67
2021/03/22 05:08:58;;;;;;;8.95;1.65;;;6.80;97.80;;;;;;5036921;28;20025;-72
2021/03/22 05:11:24;;;;;;;9.93;1.70;;;6.90;97.70;;;;;;5054593;28;20055;-67
2021/03/22 05:13:50;;;;;;;3.50;2.28;;;6.80;97.60;;;;;;5053899;28;20103;-69
2021/03/22 05:16:16;;;;;;;8.55;2.60;;;6.90;97.60;;;;;;5053912;28;20025;-69
2021/03/22 05:18:42;;;;;;;8.07;1.45;;;6.80;97.80;;;;;;5053946;28;20025;-68
2021/03/22 05:21:08;;;;;;;7.13;1.30;;;6.80;97.80;;;;;;5054593;28;20036;-70
2021/03/22 05:23:37;;;;;;;4.63;1.65;;;6.80;97.90;;;;;;5037623;28;20370;-73
2021/03/22 05:26:04;;;;;;;6.50;1.23;;;7.30;99.90;;;;;;5055036;28;20466;-69
2021/03/22 05:28:32;;;;;;;9.80;1.60;;;7.70;99.70;;;;;;5035074;28;20346;-70
2021/03/22 05:30:58;;;;;;;4.85;1.50;;;7.40;98.70;;;;;;5035967;28;20051;-71
2021/03/22 05:33:24;;;;;;;13.65;2.00;;;7.30;98.40;;;;;;5035297;28;20025;-69
2021/03/22 05:35:55;;;;;;;7.05;1.40;;;7.10;98.20;;;;;;5035923;28;20040;-67
2021/03/22 05:38:21;;;;;;;10.43;2.08;;;7.10;98.90;;;;;;5036540;28;20040;-70
2021/03/22 05:40:52;;;;;;;9.35;1.80;;;7.30;98.80;;;;;;5037104;28;20063;-71
2021/03/22 05:43:49;;;;;;;8.70;1.63;;;7.20;98.80;;;;;;5036461;28;20118;-68
2021/03/22 05:46:44;;;;;;;9.90;2.08;;;7.10;99.10;;;;;;5052350;28;20167;-69
2021/03/22 05:49:40;;;;;;;10.07;2.40;;;7.00;98.80;;;;;;5053899;28;20403;-68
2021/03/22 05:52:27;;;;;;;11.05;1.65;;;7.10;98.40;;;;;;5035352;28;20474;-68
2021/03/22 05:55:33;;;;;;;8.85;1.50;;;7.10;98.60;;;;;;5035556;28;20059;-68
2021/03/22 05:58:41;;;;;;;13.45;1.75;;;7.10;98.70;;;;;;5054002;28;20033;-69
2021/03/22 06:01:25;;;;;;;8.68;2.10;;;6.90;99.10;;;;;;4937602;29;20444;-72
2021/03/22 06:03:57;;;;;;;7.35;1.45;;;7.00;99.20;;;;;;4956412;29;20050;-69
2021/03/22 06:06:32;;;;;;;5.20;1.35;;;7.00;99.80;;;;;;4954968;29;20130;-69
2021/03/22 06:09:18;;;;;;;4.00;1.55;;;7.00;99.70;;;;;;4955568;29;20038;-69
2021/03/22 06:12:00;;;;;;;13.00;2.33;;;7.00;99.90;;;;;;4955523;29;20055;-69
2021/03/22 06:14:48;;;;;;;6.60;2.00;;;7.00;99.90;;;;;;4969267;28;20076;-68
2021/03/22 06:17:38;;;;;;;14.68;2.53;;;7.10;99.70;;;;;;4992525;28;20030;-73
2021/03/22 06:20:15;;;;;;;7.70;2.67;;;7.10;99.90;;;;;;4992319;28;20042;-69
2021/03/22 06:22:41;;;;;;;8.50;3.30;;;6.90;99.90;;;;;;4991950;28;20472;-69
2021/03/22 06:25:21;;;;;;;13.52;2.80;;;7.00;99.90;;;;;;4992116;28;20122;-68
2021/03/22 06:27:53;;;;;;;4.63;2.08;;;7.10;99.90;;;;;;4991571;28;20035;-69
2021/03/22 06:30:22;;;;;;;7.10;2.45;;;7.00;99.90;;;;;;4992935;28;20030;-69
2021/03/22 06:32:52;;;;;;;8.85;3.10;;;6.90;99.90;;;;;;4995837;28;20039;-67
2021/03/22 06:35:30;;;;;;;6.63;1.92;;;6.90;99.90;;;;;;4994937;28;20090;-68
2021/03/22 06:37:57;;;;;;;8.27;2.78;;;6.90;99.90;;;;;;5035102;28;20052;-68
2021/03/22 06:40:25;;;;;;;8.20;1.92;;;6.90;99.90;;;;;;5076378;28;20032;-68
2021/03/22 06:43:10;;;;;;;13.07;2.40;;;6.80;99.90;;;;;;5076892;28;20108;-71
2021/03/22 06:45:42;;;;;;;8.02;1.83;;;6.90;99.90;;;;;;5075185;28;20362;-71
2021/03/22 06:48:12;;;;;;;4.93;1.60;;;6.90;99.90;;;;;;5076416;28;20032;-68
2021/03/22 06:50:38;;;;;;;4.53;1.58;;;6.90;99.90;;;;;;5077143;28;20038;-69
2021/03/22 06:53:04;;;;;;;11.30;2.95;;;6.90;99.90;;;;;;5075415;28;20033;-70
2021/03/22 06:55:31;;;;;;;3.95;1.95;;;7.00;99.90;;;;;;5076177;28;20031;-68
2021/03/22 06:57:57;;;;;;;8.05;1.60;;;7.00;99.90;;;;;;5076775;28;20376;-68
2021/03/22 07:00:27;;;;;;;5.47;1.83;;;7.10;99.90;;;;;;5074642;28;20032;-69
2021/03/22 07:03:21;;;;;;;11.90;3.17;;;7.20;99.90;;;;;;5075753;28;20111;-68
2021/03/22 07:05:46;;;;;;;13.77;2.90;;;7.30;99.90;;;;;;5075136;28;20024;-71
2021/03/22 07:08:19;;;;;;;8.43;2.53;;;7.20;99.90;;;;;;5074945;28;20115;-71
2021/03/22 07:10:55;;;;;;;11.13;2.08;;;7.30;99.90;;;;;;5074791;28;20538;-68
2021/03/22 07:13:26;;;;;;;10.88;2.45;;;7.20;99.90;;;;;;5076300;28;20115;-68
2021/03/22 07:16:17;;;;;;;5.80;2.40;;;7.30;99.90;;;;;;5074614;28;20094;-69
2021/03/22 07:19:18;;;;;;;9.50;2.05;;;7.40;99.90;;;;;;5070491;28;20047;-69
2021/03/22 07:22:19;;;;;;;8.27;2.22;;;7.40;99.90;;;;;;5075043;28;20029;-71
2021/03/22 07:25:24;;;;;;;6.38;1.70;;;7.40;99.90;;;;;;5076182;28;20025;-70
2021/03/22 07:27:51;;;;;;;8.65;1.90;;;7.40;99.90;;;;;;5071631;28;20025;-68
2021/03/22 07:30:24;;;;;;;8.70;2.00;;;7.50;99.90;;;;;;5069687;28;20505;-71
2021/03/22 07:33:18;;;;;;;5.68;1.60;;;7.50;99.80;;;;;;5068464;28;20029;-69
2021/03/22 07:36:01;;;;;;;9.88;2.72;;;7.40;99.90;;;;;;5060014;28;20470;-68
2021/03/22 07:38:45;;;;;;;6.85;2.25;;;7.50;99.90;;;;;;5066233;28;20035;-70
2021/03/22 07:41:41;;;;;;;3.72;1.60;;;7.60;99.90;;;;;;5066251;28;20052;-69
2021/03/22 07:44:37;;;;;;;7.63;3.45;;;7.60;99.70;;;;;;5066069;28;20235;-68
2021/03/22 07:47:11;;;;;;;7.03;3.80;;;7.70;99.70;;;;;;5066489;28;20020;-68
2021/03/22 07:49:40;;;;;;;7.38;1.77;;;7.60;99.50;;;;;;5063354;28;20470;-69
2021/03/22 07:52:51;;;;;;;8.93;2.10;;;7.40;99.70;;;;;;5064008;28;20020;-68
2021/03/22 07:55:53;;;;;;;6.45;1.92;;;7.60;99.70;;;;;;5043956;28;20037;-69
2021/03/22 07:58:40;;;;;;;5.55;1.88;;;7.70;99.90;;;;;;5051483;28;20037;-68
2021/03/22 08:01:34;;;;;;;6.95;2.38;;;7.90;99.10;;;;;;5068167;28;20020;-69
2021/03/22 08:04:17;;;;;;;6.57;1.55;;;7.70;99.00;;;;;;5060589;28;20036;-70
2021/03/22 08:06:59;;;;;;;4.78;1.55;;;7.90;98.60;;;;;;5059256;28;20021;-67
2021/03/22 08:10:03;;;;;;;6.63;1.55;;;7.70;99.00;;;;;;5063614;28;20017;-69
2021/03/22 08:12:47;;;;;;;6.60;1.75;;;7.80;99.20;;;;;;5053248;28;20043;-72
2021/03/22 08:15:51;;;;;;;10.63;1.60;;;7.90;99.20;;;;;;5064839;28;20076;-69
2021/03/22 08:18:27;;;;;;;8.13;2.25;;;8.00;99.00;;;;;;5063079;28;20024;-70
2021/03/22 08:21:20;;;;;;;7.93;2.28;;;8.00;99.00;;;;;;5073939;28;20079;-70
2021/03/22 08:24:12;;;;;;;4.60;1.50;;;8.10;99.00;;;;;;5075729;28;20055;-71
2021/03/22 08:26:54;;;;;;;10.05;2.53;;;8.30;98.60;;;;;;5072741;28;20381;-68
2021/03/22 08:29:31;;;;;;;7.38;2.88;;;8.10;98.60;;;;;;5073350;28;20034;-69
2021/03/22 08:32:16;;;;;;;3.20;1.35;;;8.00;98.50;;;;;;5051082;28;20031;-68
2021/03/22 08:34:49;;;;;;;14.73;3.00;;;8.00;98.90;;;;;;5076887;28;20035;-68
2021/03/22 08:37:21;;;;;;;8.95;1.67;;;8.10;98.80;;;;;;5094221;28;20035;-69
2021/03/22 08:40:27;;;;;;;3.72;1.13;;;8.30;98.40;;;;;;5093297;28;20048;-69
2021/03/22 08:43:06;;;;;;;4.72;1.63;;;8.40;98.20;;;;;;5093831;28;20055;-73
2021/03/22 08:45:42;;;;;;;5.97;1.90;;;8.20;98.50;;;;;;5092201;28;20119;-68
2021/03/22 08:48:18;;;;;;;3.90;1.85;;;8.40;98.50;;;;;;5091061;28;20039;-67
2021/03/22 08:50:44;;;;;;;5.55;1.60;;;8.40;98.10;;;;;;5091831;28;20211;-67
2021/03/22 08:53:14;;;;;;;13.75;2.13;;;8.40;98.10;;;;;;5092108;28;20024;-68
2021/03/22 08:55:47;;;;;;;5.70;1.65;;;8.50;98.00;;;;;;5091999;28;20055;-67
2021/03/22 08:58:44;;;;;;;6.93;1.95;;;8.50;97.80;;;;;;5094578;28;20131;-68
2021/03/22 09:01:28;;;;;;;6.80;1.85;;;8.60;97.90;;;;;;5075059;28;20163;-67
2021/03/22 09:03:54;;;;;;;4.82;2.40;;;8.60;97.70;;;;;;5061252;28;20044;-70
2021/03/22 09:06:28;;;;;;;6.57;2.10;;;8.60;97.50;;;;;;5055914;28;20052;-69
2021/03/22 09:09:00;;;;;;;6.53;2.42;;;8.50;98.10;;;;;;5070966;28;20106;-68
2021/03/22 09:11:26;;;;;;;5.82;2.53;;;8.40;99.30;;;;;;5063448;28;20024;-72
2021/03/22 09:14:03;;;;;;;5.60;2.10;;;8.30;99.90;;;;;;5070065;28;20440;-68
2021/03/22 09:16:47;;;;;;;7.28;1.65;;;8.30;99.90;;;;;;5035325;28;20458;-69
2021/03/22 09:19:14;;;;;;;4.28;2.28;;;8.30;99.90;;;;;;5035977;28;20036;-68
2021/03/22 09:21:55;;;;;;;7.18;2.03;;;8.30;99.90;;;;;;5034965;28;20054;-67
2021/03/22 09:24:43;;;;;;;7.97;1.52;;;8.30;99.10;;;;;;5035383;28;20493;-67
2021/03/22 09:27:21;;;;;;;4.03;1.40;;;8.50;98.90;;;;;;5035665;28;20032;-68
2021/03/22 09:30:04;;;;;;;5.90;1.63;;;8.70;98.70;;;;;;5020256;28;20021;-70
2021/03/22 09:32:34;;;;;;;6.18;1.80;;;8.70;98.50;;;;;;5014753;28;20036;-68
2021/03/22 09:35:28;;;;;;;7.18;2.00;;;8.70;98.00;;;;;;5015228;28;20027;-67
2021/03/22 09:38:02;;;;;;;5.55;1.50;;;8.80;98.10;;;;;;5033997;28;20057;-68
2021/03/22 09:40:28;;;;;;;5.40;1.55;;;8.70;97.90;;;;;;5034785;28;20437;-71
2021/03/22 09:43:06;;;;;;;6.43;1.50;;;8.70;97.80;;;;;;5052227;28;20063;-69
2021/03/22 09:45:52;;;;;;;6.57;1.70;;;8.50;97.90;;;;;;5022752;28;20120;-68
2021/03/22 09:48:22;;;;;;;8.40;1.83;;;8.40;98.10;;;;;;5026245;28;20052;-69
2021/03/22 09:51:11;;;;;;;6.60;2.67;;;8.50;97.90;;;;;;5024864;28;20029;-68
2021/03/22 09:54:01;;;;;;;8.48;2.28;;;8.70;98.20;;;;;;5014510;28;20052;-69
2021/03/22 09:57:01;;;;;;;5.03;1.25;;;8.80;97.50;;;;;;5024417;28;20076;-70
2021/03/22 09:59:35;;;;;;;12.13;2.40;;;9.00;97.60;;;;;;5024806;28;20252;-70
2021/03/22 10:02:29;;;;;;;3.50;1.52;;;8.90;97.20;;;;;;5024036;28;20529;-72
2021/03/22 10:05:16;;;;;;;4.80;1.30;;;8.90;97.20;;;;;;5022740;28;20037;-68
2021/03/22 10:07:49;;;;;;;7.65;1.67;;;8.90;97.30;;;;;;5026295;28;20032;-74
2021/03/22 10:10:40;;;;;;;5.63;2.10;;;9.10;97.10;;;;;;5038648;28;20032;-72
2021/03/22 10:13:27;;;;;;;6.00;1.55;;;9.30;96.60;;;;;;5034115;28;20041;-71
2021/03/22 10:16:09;;;;;;;6.88;1.98;;;9.40;96.50;;;;;;5063713;28;20048;-70
2021/03/22 10:18:48;;;;;;;9.40;1.80;;;9.60;96.00;;;;;;5062969;28;20081;-70
2021/03/22 10:21:31;;;;;;;3.65;1.60;;;9.50;96.30;;;;;;5060974;28;20025;-71
2021/03/22 10:24:22;;;;;;;3.97;1.98;;;9.70;96.20;;;;;;5060685;28;20061;-69
2021/03/22 10:26:53;;;;;;;6.63;1.70;;;9.70;95.60;;;;;;5052385;28;20036;-68
2021/03/22 10:29:25;;;;;;;3.80;1.63;;;9.70;95.60;;;;;;5068704;28;20530;-70
2021/03/22 10:32:13;;;;;;;3.45;1.40;;;9.80;95.10;;;;;;5058592;28;20032;-71
2021/03/22 10:34:41;;;;;;;3.42;1.48;;;9.80;94.90;;;;;;5061706;28;20040;-70
2021/03/22 10:37:34;;;;;;;2.25;1.50;;;9.70;94.80;;;;;;5071393;28;20028;-70
2021/03/22 10:40:07;;;;;;;5.47;1.45;;;9.70;94.60;;;;;;5066155;28;20037;-71
2021/03/22 10:42:39;;;;;;;9.32;1.98;;;9.50;95.10;;;;;;5075069;28;20029;-69
2021/03/22 10:45:23;;;;;;;3.53;1.20;;;9.50;95.60;;;;;;5075885;28;20036;-71
2021/03/22 10:47:51;;;;;;;3.42;1.15;;;9.80;95.30;;;;;;5073635;28;20115;-71
2021/03/22 10:50:25;;;;;;;5.93;1.50;;;9.80;94.70;;;;;;5073440;28;20021;-69
2021/03/22 10:53:05;;;;;;;5.47;1.80;;;9.60;94.80;;;;;;5072833;28;20037;-71
2021/03/22 10:55:33;;;;;;;3.13;0.98;;;9.70;94.90;;;;;;5072645;28;20085;-70
2021/03/22 10:58:02;;;;;;;4.82;0.93;;;9.90;94.80;;;;;;5074188;28;20020;-71
2021/03/22 11:00:40;;;;;;;4.47;1.35;;;10.20;95.10;;;;;;5071400;28;20032;-72
2021/03/22 11:03:08;;;;;;;10.77;1.55;;;10.30;94.10;;;;;;5071950;28;20436;-70
2021/03/22 11:05:37;;;;;;;4.63;1.42;;;10.30;94.00;;;;;;5071344;28;20478;-71
2021/03/22 11:08:19;;;;;;;4.65;1.30;;;10.10;95.00;;;;;;5073005;28;20562;-70
2021/03/22 11:10:45;;;;;;;6.93;1.50;;;10.00;96.20;;;;;;5072257;28;20021;-71
2021/03/22 11:13:17;;;;;;;6.57;2.60;;;9.90;95.90;;;;;;5071594;28;20385;-69
2021/03/22 11:15:48;;;;;;;9.73;1.88;;;9.90;96.50;;;;;;5070663;28;20060;-71
2021/03/22 11:18:16;;;;;;;5.22;1.70;;;9.90;96.40;;;;;;5074790;28;20058;-70
2021/03/22 11:20:48;;;;;;;3.92;1.38;;;9.80;96.60;;;;;;5074577;28;20031;-68
2021/03/22 11:23:26;;;;;;;11.07;1.75;;;9.80;96.60;;;;;;5076239;28;20029;-71
2021/03/22 11:25:55;;;;;;;3.35;1.63;;;9.80;96.80;;;;;;5075263;28;20031;-70
2021/03/22 11:28:20;;;;;;;6.85;1.67;;;9.80;96.20;;;;;;5076694;28;20024;-69
2021/03/22 11:30:49;;;;;;;5.43;1.77;;;9.90;97.00;;;;;;5074805;28;20094;-69
2021/03/22 11:33:18;;;;;;;5.45;1.45;;;9.90;96.40;;;;;;5075926;28;20043;-70
2021/03/22 11:35:46;;;;;;;4.45;1.25;;;9.90;96.40;;;;;;5075167;28;20036;-71
2021/03/22 11:38:35;;;;;;;6.72;2.08;;;10.10;96.20;;;;;;5074787;28;20100;-70
2021/03/22 11:41:00;;;;;;;3.13;1.10;;;10.20;96.30;;;;;;5074454;28;20052;-69
2021/03/22 11:43:37;;;;;;;3.00;1.15;;;9.80;95.60;;;;;;5074462;28;20466;-70
2021/03/22 11:46:14;;;;;;;3.13;1.13;;;9.70;95.40;;;;;;5074557;28;20558;-69
2021/03/22 11:48:41;;;;;;;4.07;2.10;;;9.70;96.00;;;;;;5074323;28;20540;-69
2021/03/22 11:51:10;;;;;;;6.05;1.48;;;9.90;95.80;;;;;;5076370;28;20029;-70
2021/03/22 11:54:05;;;;;;;8.90;1.88;;;10.00;95.20;;;;;;5074651;28;20025;-73
2021/03/22 11:56:37;;;;;;;9.05;1.45;;;10.00;94.50;;;;;;5075490;28;20028;-73
2021/03/22 11:59:06;;;;;;;;;;;10.00;94.30;;;;;;5075122;28;20028;-73
2021/03/22 12:01:32;;;;;;;2.78;1.25;;;9.90;94.70;;;;;;5074644;28;19904;-70
2021/03/22 12:04:04;;;;;;;4.22;1.45;;;9.90;94.60;;;;;;5077720;28;20035;-76
2021/03/22 12:06:31;;;;;;;24.10;2.85;;;9.90;94.60;;;;;;5078920;28;20029;-72
2021/03/22 12:08:57;;;;;;;9.70;1.45;;;9.80;95.20;;;;;;5077456;28;20032;-69
2021/03/22 12:11:28;;;;;;;8.05;1.58;;;9.80;94.90;;;;;;5077524;28;20029;-71
2021/03/22 12:13:59;;;;;;;3.53;1.20;;;10.00;94.90;;;;;;5073893;28;20045;-70
2021/03/22 12:16:34;;;;;;;2.65;1.13;;;10.00;94.90;;;;;;5057902;28;20029;-69
2021/03/22 12:19:17;;;;;;;3.30;1.40;;;10.10;94.20;;;;;;5057423;28;20052;-70
2021/03/22 12:21:43;;;;;;;8.02;1.55;;;10.10;94.60;;;;;;5037904;28;20055;-68
2021/03/22 12:24:14;;;;;;;7.07;1.88;;;10.20;94.60;;;;;;5038357;28;20470;-71
2021/03/22 12:26:40;;;;;;;3.88;1.52;;;10.20;94.70;;;;;;5057019;28;20462;-69
2021/03/22 12:29:06;;;;;;;2.85;1.27;;;9.90;95.00;;;;;;5059223;28;20076;-70
2021/03/22 12:31:49;;;;;;;4.93;1.40;;;10.00;95.10;;;;;;5059562;28;20025;-70
2021/03/22 12:34:17;;;;;;;4.88;1.52;;;10.30;94.80;;;;;;5059527;28;20032;-70
2021/03/22 12:36:44;;;;;;;4.72;1.17;;;10.30;94.90;;;;;;5059293;28;20065;-69
2021/03/22 12:39:17;;;;;;;2.55;1.60;;;10.40;94.70;;;;;;5041261;28;20481;-71
2021/03/22 12:41:43;;;;;;;9.90;2.60;;;10.50;94.30;;;;;;5058752;28;20041;-73
2021/03/22 12:44:09;;;;;;;3.88;1.52;;;10.50;94.30;;;;;;5040899;28;20474;-70
2021/03/22 12:46:35;;;;;;;3.78;1.83;;;10.60;93.80;;;;;;5040118;28;20124;-70
2021/03/22 12:49:00;;;;;;;2.83;1.00;;;10.40;93.90;;;;;;5038304;28;20453;-71
2021/03/22 12:51:26;;;;;;;3.78;1.20;;;10.50;93.80;;;;;;5055165;28;20056;-69
2021/03/22 12:53:52;;;;;;;3.75;1.08;;;10.70;93.40;;;;;;5036298;28;20024;-69
2021/03/22 12:56:23;;;;;;;2.78;1.13;;;10.50;93.80;;;;;;5037070;28;20086;-68
2021/03/22 12:58:48;;;;;;;4.65;1.30;;;10.50;94.00;;;;;;5035962;28;20021;-70
2021/03/22 13:01:17;;;;;;;5.18;2.60;;;10.30;94.20;;;;;;5054242;28;20458;-69
2021/03/22 13:03:43;;;;;;;3.30;1.05;;;10.20;94.30;;;;;;5035474;28;20024;-69
2021/03/22 13:06:09;;;;;;;3.42;1.30;;;10.30;94.40;;;;;;5036690;28;20021;-69
2021/03/22 13:08:35;;;;;;;10.95;1.60;;;10.30;95.00;;;;;;5036307;28;20071;-70
2021/03/22 13:11:01;;;;;;;1.70;0.90;;;10.30;94.40;;;;;;5036222;28;20025;-69
2021/03/22 13:13:26;;;;;;;2.58;1.75;;;10.20;94.30;;;;;;5036221;28;20036;-69
2021/03/22 13:15:54;;;;;;;7.13;1.42;;;10.30;94.40;;;;;;5071288;28;20057;-71
2021/03/22 13:18:28;;;;;;;3.35;1.27;;;10.30;94.20;;;;;;5072758;28;20107;-70
2021/03/22 13:20:57;;;;;;;13.32;1.40;;;10.60;94.80;;;;;;5072548;28;20024;-68
2021/03/22 13:23:26;;;;;;;3.38;1.45;;;10.60;93.80;;;;;;5074292;28;20021;-70
2021/03/22 13:25:52;;;;;;;4.57;1.15;;;10.80;94.30;;;;;;5071897;28;20137;-68